Time;durP1;ratioP1;P1;durP2;ratioP2;P2;SDS_P1;SDS_P2;PMS_P1;PMS_P2;Temp;Humidity;BMP_temperature;BMP_pressure;BME280_temperature;BME280_humidity;BME280_pressure;Samples;Min_cycle;Max_cycle;Signal;HPM_P1;HPM_P2
2023/08/18 00:01:21;;;;;;;7.82;3.60;;;20.40;99.90;;;19.85;100.00;100782.13;4152194;28;20037;-75
2023/08/18 00:03:22;;;;;;;4.57;4.13;;;20.30;99.90;;;19.85;100.00;100779.44;4151831;28;20046;-74
2023/08/18 00:05:23;;;;;;;6.15;3.97;;;20.30;99.90;;;19.86;100.00;100783.75;4152062;28;20121;-74
2023/08/18 00:07:23;;;;;;;9.90;4.00;;;20.30;99.90;;;19.87;100.00;100785.41;4150740;28;20022;-74
2023/08/18 00:09:24;;;;;;;5.35;3.70;;;20.30;99.90;;;19.85;100.00;100774.09;4152124;28;20486;-75
2023/08/18 00:11:25;;;;;;;4.93;3.92;;;20.30;99.90;;;19.89;100.00;100790.56;4150915;28;20029;-75
2023/08/18 00:13:26;;;;;;;4.63;3.58;;;20.30;99.90;;;19.88;100.00;100789.72;4151935;28;20045;-74
2023/08/18 00:15:27;;;;;;;5.45;3.83;;;20.30;99.90;;;19.87;100.00;100788.06;4150622;28;20026;-74
2023/08/18 00:17:28;;;;;;;4.63;4.10;;;20.30;99.90;;;19.84;100.00;100798.38;4151828;28;20080;-74
2023/08/18 00:19:29;;;;;;;4.35;3.88;;;20.30;99.90;;;19.78;100.00;100792.03;4151776;28;20033;-74
2023/08/18 00:21:30;;;;;;;4.50;3.83;;;20.30;99.90;;;19.78;100.00;100789.34;4128152;28;20030;-74
2023/08/18 00:23:31;;;;;;;6.75;3.75;;;20.20;99.90;;;19.75;100.00;100783.59;4140721;28;20049;-74
2023/08/18 00:25:32;;;;;;;5.45;4.00;;;20.20;99.90;;;19.74;100.00;100782.78;4152704;28;20077;-74
2023/08/18 00:27:34;;;;;;;5.57;3.63;;;20.20;99.90;;;19.68;100.00;100767.59;4148753;28;20030;-74
2023/08/18 00:29:36;;;;;;;6.03;4.10;;;20.20;99.90;;;19.69;100.00;100776.44;4138524;28;20022;-74
2023/08/18 00:31:37;;;;;;;5.85;3.90;;;20.20;99.90;;;19.68;100.00;100775.63;4150602;28;20095;-74
2023/08/18 00:33:38;;;;;;;6.15;3.60;;;20.20;99.90;;;19.67;100.00;100760.59;4153316;28;20029;-75
2023/08/18 00:35:39;;;;;;;5.22;3.70;;;20.20;99.90;;;19.70;100.00;100760.19;4164619;28;20476;-75
2023/08/18 00:37:42;;;;;;;5.45;3.35;;;20.20;99.90;;;19.73;100.00;100757.06;4146651;28;20018;-75
2023/08/18 00:39:43;;;;;;;4.47;3.40;;;20.30;99.90;;;19.73;100.00;100759.75;4154819;28;20033;-74
2023/08/18 00:41:44;;;;;;;5.00;3.30;;;20.20;99.90;;;19.74;100.00;100761.38;4153346;28;20022;-75
2023/08/18 00:43:45;;;;;;;4.28;2.80;;;20.20;99.90;;;19.71;100.00;100751.09;4154666;28;20109;-75
2023/08/18 00:45:45;;;;;;;5.15;3.15;;;20.20;99.90;;;19.67;100.00;100739.19;4153518;28;20053;-75
2023/08/18 00:47:46;;;;;;;5.20;3.45;;;20.20;99.90;;;19.69;100.00;100737.13;4154467;28;20029;-75
2023/08/18 00:49:48;;;;;;;3.50;2.80;;;20.20;99.90;;;19.65;100.00;100735.09;4153314;28;20075;-74
2023/08/18 00:51:49;;;;;;;4.90;3.25;;;20.20;99.90;;;19.59;100.00;100730.59;4153472;28;20088;-75
2023/08/18 00:53:50;;;;;;;4.47;3.20;;;20.20;99.90;;;19.58;100.00;100728.94;4153505;28;20030;-74
2023/08/18 00:55:51;;;;;;;3.28;2.72;;;20.10;99.90;;;19.57;100.00;100732.66;4148051;28;20072;-75
2023/08/18 00:57:55;;;;;;;3.92;2.90;;;20.10;99.90;;;19.52;100.00;100729.81;4134691;28;20023;-74
2023/08/18 00:59:57;;;;;;;5.10;3.00;;;20.10;99.90;;;19.53;100.00;100737.63;4153358;28;20038;-75
2023/08/18 01:02:02;;;;;;;4.00;2.83;;;20.00;99.90;;;19.51;100.00;100737.00;4136951;28;20081;-74
2023/08/18 01:04:04;;;;;;;4.63;3.17;;;20.00;99.90;;;19.46;100.00;100731.50;4154146;28;20033;-75
2023/08/18 01:06:05;;;;;;;3.35;3.05;;;20.00;99.90;;;19.43;100.00;100734.59;4154276;28;20105;-74
2023/08/18 01:08:06;;;;;;;4.82;2.75;;;19.90;99.90;;;19.38;100.00;100736.25;4154358;28;20025;-75
2023/08/18 01:10:07;;;;;;;5.57;3.03;;;19.90;99.90;;;19.31;100.00;100728.25;4153158;28;20029;-75
2023/08/18 01:12:42;;;;;;;4.90;2.85;;;19.80;99.90;;;19.25;100.00;100729.91;4153266;28;20022;-75
2023/08/18 01:15:27;;;;;;;3.13;2.70;;;19.70;99.90;;;19.17;100.00;100732.84;4154300;28;20038;-74
2023/08/18 01:17:37;;;;;;;6.13;3.20;;;19.70;99.90;;;19.15;100.00;100734.06;4140109;28;20034;-75
2023/08/18 01:19:38;;;;;;;4.47;3.50;;;19.60;99.90;;;19.07;100.00;100729.78;4152806;28;20069;-75
2023/08/18 01:21:43;;;;;;;5.22;3.85;;;19.60;99.90;;;19.02;100.00;100723.44;4150392;28;20036;-75
2023/08/18 01:23:44;;;;;;;6.63;3.60;;;19.50;99.90;;;18.99;100.00;100723.84;4153843;28;20034;-75
2023/08/18 01:25:44;;;;;;;5.18;3.67;;;19.50;99.90;;;18.96;100.00;100724.28;4154395;28;20022;-74
2023/08/18 01:27:45;;;;;;;4.28;3.38;;;19.50;99.90;;;18.99;100.00;100729.22;4152905;28;20025;-75
2023/08/18 01:29:46;;;;;;;4.13;3.10;;;19.50;99.90;;;18.97;100.00;100731.25;4152868;28;20017;-75
2023/08/18 01:31:53;;;;;;;3.88;3.20;;;19.50;99.90;;;18.93;100.00;100728.19;4153549;28;20092;-75
2023/08/18 01:34:09;;;;;;;5.15;3.67;;;19.50;99.90;;;19.01;100.00;100735.97;4136400;28;20027;-75
2023/08/18 01:36:21;;;;;;;9.70;4.18;;;19.50;99.90;;;18.99;100.00;100734.56;4151517;28;20046;-75
2023/08/18 01:38:24;;;;;;;3.97;3.50;;;19.50;99.90;;;19.06;100.00;100738.84;4152580;28;20090;-75
2023/08/18 01:40:29;;;;;;;3.80;3.15;;;19.50;99.90;;;19.08;100.00;100743.97;4150901;28;20030;-75
2023/08/18 01:42:30;;;;;;;3.80;3.15;;;19.60;99.90;;;19.07;100.00;100731.63;4145502;28;20041;-75
2023/08/18 01:44:31;;;;;;;4.32;3.40;;;19.60;99.90;;;19.06;100.00;100735.34;4153829;28;20030;-75
2023/08/18 01:46:32;;;;;;;3.38;3.08;;;19.50;99.90;;;18.97;100.00;100726.72;4153623;28;20037;-75
2023/08/18 01:48:33;;;;;;;3.40;2.97;;;19.50;99.90;;;18.99;100.00;100735.38;4152278;28;20029;-75
2023/08/18 01:50:34;;;;;;;3.75;3.30;;;19.50;99.90;;;18.93;100.00;100724.69;4153687;28;20094;-75
2023/08/18 01:52:34;;;;;;;4.45;3.58;;;19.50;99.90;;;18.96;100.00;100734.97;4153625;28;20041;-75
2023/08/18 01:54:35;;;;;;;5.05;3.83;;;19.40;99.90;;;18.90;100.00;100725.13;4153452;28;20394;-75
2023/08/18 01:56:36;;;;;;;4.40;3.50;;;19.40;99.90;;;18.93;100.00;100732.72;4152557;28;20037;-75
2023/08/18 01:58:37;;;;;;;4.72;3.15;;;19.40;99.90;;;18.94;100.00;100737.00;4153644;28;20037;-75
2023/08/18 02:00:38;;;;;;;3.30;3.00;;;19.40;99.90;;;18.89;100.00;100734.16;4153482;28;20030;-75
2023/08/18 02:02:39;;;;;;;6.95;3.80;;;19.40;99.90;;;18.96;100.00;100741.16;4153451;28;20037;-75
2023/08/18 02:04:39;;;;;;;7.70;4.35;;;19.40;99.90;;;18.98;100.00;100727.56;4151250;28;20018;-75
2023/08/18 02:06:40;;;;;;;4.38;3.72;;;19.40;99.90;;;19.03;100.00;100730.41;4153606;28;20054;-75
2023/08/18 02:08:41;;;;;;;4.70;3.80;;;19.50;99.90;;;19.01;100.00;100714.59;4153432;28;20072;-75
2023/08/18 02:10:42;;;;;;;5.40;3.75;;;19.50;99.90;;;19.04;100.00;100716.84;4132155;28;20066;-75
2023/08/18 02:12:43;;;;;;;5.38;3.53;;;19.50;99.90;;;19.07;100.00;100716.41;4151880;28;20026;-74
2023/08/18 02:14:44;;;;;;;5.18;3.53;;;19.50;99.90;;;19.04;100.00;100710.66;4153573;28;20026;-75
2023/08/18 02:16:45;;;;;;;5.63;4.10;;;19.60;99.90;;;19.02;100.00;100702.03;4152035;28;20084;-74
2023/08/18 02:18:47;;;;;;;5.45;4.13;;;19.60;99.90;;;19.08;100.00;100709.22;4151724;28;20056;-74
2023/08/18 02:20:58;;;;;;;9.48;4.32;;;19.60;99.90;;;19.05;100.00;100715.00;4150627;28;20018;-74
2023/08/18 02:22:59;;;;;;;4.15;3.20;;;19.60;99.90;;;19.08;100.00;100711.91;4151964;28;20044;-74
2023/08/18 02:25:00;;;;;;;4.07;3.58;;;19.50;99.90;;;19.13;100.00;100717.41;4151980;28;20021;-75
2023/08/18 02:27:01;;;;;;;5.55;4.03;;;19.60;99.90;;;19.13;100.00;100709.41;4151850;28;20105;-74
2023/08/18 02:29:03;;;;;;;5.00;3.78;;;19.50;99.90;;;19.12;100.00;100707.75;4153108;28;20025;-74
2023/08/18 02:31:06;;;;;;;5.65;3.92;;;19.50;99.90;;;19.11;100.00;100706.13;4153048;28;20045;-74
2023/08/18 02:33:07;;;;;;;5.28;3.95;;;19.60;99.90;;;19.10;100.00;100715.16;4151513;28;20022;-75
2023/08/18 02:35:08;;;;;;;5.25;4.50;;;19.60;99.90;;;19.08;100.00;100719.91;4149055;28;20027;-75
2023/08/18 02:37:09;;;;;;;6.38;4.00;;;19.50;99.90;;;19.08;100.00;100725.25;4151513;28;20057;-75
2023/08/18 02:39:10;;;;;;;4.43;3.33;;;19.50;99.90;;;19.06;100.00;100724.63;4151834;28;20026;-75
2023/08/18 02:41:11;;;;;;;6.43;4.00;;;19.50;99.90;;;19.02;100.00;100718.09;4145977;28;20022;-75
2023/08/18 02:43:12;;;;;;;7.65;3.95;;;19.50;99.90;;;19.04;100.00;100719.50;4148906;28;20100;-75
2023/08/18 02:45:13;;;;;;;4.03;3.53;;;19.50;99.90;;;19.03;100.00;100722.38;4152073;28;20018;-74
2023/08/18 02:47:14;;;;;;;4.78;4.28;;;19.50;99.90;;;19.02;100.00;100715.41;4152812;28;20036;-75
2023/08/18 02:49:15;;;;;;;5.00;3.97;;;19.50;99.90;;;19.08;100.00;100727.94;4151370;28;20018;-75
2023/08/18 02:51:15;;;;;;;7.30;4.38;;;19.50;99.90;;;19.06;100.00;100720.13;4145260;28;20037;-75
2023/08/18 02:53:16;;;;;;;4.28;3.53;;;19.50;99.90;;;19.13;100.00;100731.63;4151742;28;20418;-74
2023/08/18 02:55:17;;;;;;;5.10;4.22;;;19.60;99.90;;;19.14;100.00;100732.44;4152750;28;20032;-74
2023/08/18 02:57:18;;;;;;;4.57;3.33;;;19.60;99.90;;;19.22;100.00;100732.19;4151656;28;20037;-74
2023/08/18 02:59:19;;;;;;;4.25;3.58;;;19.70;99.90;;;19.24;100.00;100728.28;4152714;28;20033;-74
2023/08/18 03:01:20;;;;;;;5.82;3.70;;;19.70;99.90;;;19.31;100.00;100736.28;4151430;28;20030;-74
2023/08/18 03:03:21;;;;;;;4.72;3.78;;;19.80;99.90;;;19.28;100.00;100723.31;4152449;28;20030;-74
2023/08/18 03:05:22;;;;;;;4.43;3.30;;;19.80;99.90;;;19.25;100.00;100707.69;4149335;28;20541;-74
2023/08/18 03:07:23;;;;;;;4.20;3.63;;;19.80;99.90;;;19.29;100.00;100711.59;4148930;28;20026;-75
2023/08/18 03:09:24;;;;;;;5.43;3.55;;;19.80;99.90;;;19.27;100.00;100709.13;4151515;28;20026;-75
2023/08/18 03:11:24;;;;;;;7.10;3.95;;;19.80;99.90;;;19.29;100.00;100724.97;4148908;28;20022;-74
2023/08/18 03:13:26;;;;;;;6.57;3.72;;;19.80;99.90;;;19.27;100.00;100719.00;4151230;28;20026;-75
2023/08/18 03:15:27;;;;;;;6.15;3.85;;;19.80;99.90;;;19.23;100.00;100726.63;4151323;28;20549;-74
2023/08/18 03:17:28;;;;;;;6.53;3.85;;;19.80;99.90;;;19.23;100.00;100731.16;4152335;28;20026;-74
2023/08/18 03:19:28;;;;;;;5.63;3.22;;;19.80;99.90;;;19.27;100.00;100729.69;4152283;28;20532;-74
2023/08/18 03:21:29;;;;;;;5.07;3.58;;;19.80;99.90;;;19.27;100.00;100729.69;4151164;28;20025;-74
2023/08/18 03:23:30;;;;;;;5.07;3.58;;;19.80;99.90;;;19.35;100.00;100732.94;4151427;28;20029;-74
2023/08/18 03:25:31;;;;;;;5.18;3.60;;;19.80;99.90;;;19.40;100.00;100734.19;4152223;28;20481;-75
2023/08/18 03:27:33;;;;;;;4.80;3.08;;;19.80;99.90;;;19.41;100.00;100717.94;4152399;28;20489;-74
2023/08/18 03:29:34;;;;;;;4.32;3.65;;;19.90;99.90;;;19.32;100.00;100709.28;4152570;28;20386;-74
2023/08/18 03:31:35;;;;;;;4.65;3.00;;;19.90;99.90;;;19.44;100.00;100730.91;4152241;28;20030;-74
2023/08/18 03:33:36;;;;;;;6.13;3.95;;;19.90;99.90;;;19.42;100.00;100734.78;4150679;28;20100;-74
2023/08/18 03:35:37;;;;;;;5.05;3.42;;;19.90;99.90;;;19.38;100.00;100733.56;4141844;28;20033;-75
2023/08/18 03:37:37;;;;;;;4.75;3.15;;;19.90;99.90;;;19.36;100.00;100739.13;4152361;28;20026;-74
2023/08/18 03:39:38;;;;;;;4.93;3.13;;;19.80;99.90;;;19.33;100.00;100739.53;4152442;28;20030;-74
2023/08/18 03:41:39;;;;;;;4.68;3.17;;;19.80;99.90;;;19.25;100.00;100731.78;4142717;28;20049;-75
2023/08/18 03:43:40;;;;;;;3.80;3.08;;;19.80;99.90;;;19.36;100.00;100747.13;4151158;28;20030;-75
2023/08/18 03:45:41;;;;;;;3.90;3.42;;;19.80;99.90;;;19.30;100.00;100738.13;4152304;28;20037;-74
2023/08/18 03:47:42;;;;;;;4.97;3.47;;;19.80;99.90;;;19.38;100.00;100739.75;4134709;28;20030;-74
2023/08/18 03:49:43;;;;;;;4.95;3.25;;;19.80;99.90;;;19.35;100.00;100735.63;4151887;28;20053;-74
2023/08/18 03:51:43;;;;;;;8.55;3.78;;;19.80;99.90;;;19.37;100.00;100731.91;4145260;28;20026;-75
2023/08/18 03:53:44;;;;;;;6.55;3.80;;;19.90;99.90;;;19.39;100.00;100729.84;4152477;28;20037;-74
2023/08/18 03:55:50;;;;;;;6.05;4.00;;;19.80;99.90;;;19.35;100.00;100721.44;4148142;28;20464;-75
2023/08/18 03:57:51;;;;;;;4.85;3.92;;;19.80;99.90;;;19.33;100.00;100721.66;4153329;28;20559;-74
2023/08/18 03:59:55;;;;;;;5.20;3.63;;;19.90;99.90;;;19.34;100.00;100717.94;4154280;28;20029;-75
2023/08/18 04:01:56;;;;;;;5.18;3.28;;;19.80;99.90;;;19.38;100.00;100720.19;4134956;28;20134;-74
2023/08/18 04:03:59;;;;;;;4.70;3.63;;;19.90;99.90;;;19.32;100.00;100720.00;4154529;28;20046;-74
2023/08/18 04:06:00;;;;;;;3.50;3.03;;;19.80;99.90;;;19.33;100.00;100720.81;4154048;28;20425;-74
2023/08/18 04:08:00;;;;;;;4.70;3.10;;;19.80;99.90;;;19.40;100.00;100737.69;4154370;28;20128;-75
2023/08/18 04:10:03;;;;;;;4.43;3.17;;;19.80;99.90;;;19.37;100.00;100738.09;4155493;28;20022;-75
2023/08/18 04:12:04;;;;;;;3.70;3.35;;;19.80;99.90;;;19.25;100.00;100716.56;4155163;28;20110;-75
2023/08/18 04:14:05;;;;;;;4.35;2.97;;;19.80;99.90;;;19.36;100.00;100733.75;4154972;28;20033;-74
2023/08/18 04:16:06;;;;;;;4.03;3.20;;;19.80;99.90;;;19.34;100.00;100723.28;4155208;28;20025;-75
2023/08/18 04:18:07;;;;;;;6.53;3.10;;;19.80;99.90;;;19.30;100.00;100714.03;4154947;28;20022;-75
2023/08/18 04:20:09;;;;;;;4.28;3.30;;;19.80;99.90;;;19.27;100.00;100708.28;4147100;28;20136;-74
2023/08/18 04:22:10;;;;;;;5.65;3.53;;;19.80;99.90;;;19.25;100.00;100702.34;4161289;28;20584;-75
2023/08/18 04:24:10;;;;;;;9.75;3.80;;;19.80;99.90;;;19.24;100.00;100696.19;4144438;28;20033;-74
2023/08/18 04:26:12;;;;;;;4.82;4.07;;;19.80;99.90;;;19.21;100.00;100680.56;4154032;28;20030;-75
2023/08/18 04:28:13;;;;;;;4.80;3.33;;;19.70;99.90;;;19.20;100.00;100678.09;4153843;28;20025;-75
2023/08/18 04:30:13;;;;;;;5.53;3.25;;;19.70;99.90;;;19.15;100.00;100672.56;4154814;28;20034;-75
2023/08/18 04:32:14;;;;;;;5.07;3.67;;;19.70;99.90;;;19.13;100.00;100671.97;4153638;28;20026;-74
2023/08/18 04:34:15;;;;;;;4.60;3.80;;;19.60;99.90;;;19.09;100.00;100666.22;4154698;28;20034;-75
2023/08/18 04:36:16;;;;;;;4.32;3.30;;;19.60;99.90;;;19.06;100.00;100658.63;4152818;28;20053;-75
2023/08/18 04:38:17;;;;;;;4.85;3.38;;;19.50;99.90;;;19.06;100.00;100655.94;4154681;28;20030;-75
2023/08/18 04:40:18;;;;;;;5.60;3.10;;;19.60;99.90;;;19.05;100.00;100648.16;4154885;28;20121;-75
2023/08/18 04:42:19;;;;;;;5.40;3.65;;;19.50;99.90;;;19.00;100.00;100638.09;4147086;28;20061;-75
2023/08/18 04:44:20;;;;;;;3.75;3.35;;;19.50;99.90;;;18.97;100.00;100629.66;4153676;28;20025;-75
2023/08/18 04:46:21;;;;;;;5.22;3.08;;;19.50;99.90;;;18.98;100.00;100637.47;4169659;28;20052;-75
2023/08/18 04:48:23;;;;;;;4.63;3.72;;;19.50;99.90;;;18.96;100.00;100633.38;4153345;28;20022;-75
2023/08/18 04:50:23;;;;;;;4.35;3.67;;;19.50;99.90;;;18.91;100.00;100630.50;4153458;28;20034;-75
2023/08/18 04:52:25;;;;;;;4.60;3.42;;;19.40;99.90;;;18.89;100.00;100637.94;4153264;28;20033;-75
2023/08/18 04:54:25;;;;;;;5.65;3.42;;;19.40;99.90;;;18.86;100.00;100633.00;4154503;28;20025;-75
2023/08/18 04:56:26;;;;;;;4.75;3.75;;;19.30;99.90;;;18.83;100.00;100633.44;4152650;28;20025;-75
2023/08/18 04:58:27;;;;;;;6.13;3.20;;;19.30;99.90;;;18.79;100.00;100633.03;4153319;28;20026;-75
2023/08/18 05:00:29;;;;;;;8.10;3.90;;;19.30;99.90;;;18.78;100.00;100634.09;4154592;28;20025;-75
2023/08/18 05:02:30;;;;;;;6.75;4.30;;;19.30;99.90;;;18.77;100.00;100641.28;4151403;28;20462;-75
2023/08/18 05:04:31;;;;;;;4.78;3.50;;;19.20;99.90;;;18.73;100.00;100633.88;4154215;28;20105;-75
2023/08/18 05:06:32;;;;;;;4.10;3.30;;;19.20;99.90;;;18.71;100.00;100631.44;4152623;28;20517;-75
2023/08/18 05:08:33;;;;;;;7.32;3.88;;;19.20;99.90;;;18.75;100.00;100640.69;4127712;28;20023;-75
2023/08/18 05:10:34;;;;;;;6.63;4.05;;;19.20;99.90;;;18.72;100.00;100638.44;4151231;28;20030;-75
2023/08/18 05:12:35;;;;;;;5.15;3.83;;;19.20;99.90;;;18.69;100.00;100638.03;4153578;28;20025;-74
2023/08/18 05:14:35;;;;;;;6.70;4.40;;;19.20;99.90;;;18.68;100.00;100647.06;4152904;28;20109;-75
2023/08/18 05:16:36;;;;;;;6.85;4.13;;;19.20;99.90;;;18.67;100.00;100635.56;4154094;28;20049;-75
2023/08/18 05:18:37;;;;;;;6.70;3.97;;;19.20;99.90;;;18.68;100.00;100636.38;4154018;28;20030;-75
2023/08/18 05:20:38;;;;;;;6.32;4.20;;;19.20;99.90;;;18.72;100.00;100641.09;4154007;28;20033;-75
2023/08/18 05:22:40;;;;;;;5.65;4.35;;;19.20;99.90;;;18.72;100.00;100641.09;4153972;28;20061;-75
2023/08/18 05:24:41;;;;;;;6.57;4.22;;;19.20;99.90;;;18.78;100.00;100648.28;4154091;28;20030;-74
2023/08/18 05:26:42;;;;;;;6.05;4.47;;;19.30;99.90;;;18.79;100.00;100649.91;4154116;28;20030;-74
2023/08/18 05:28:44;;;;;;;7.78;4.30;;;19.30;99.90;;;18.82;100.00;100654.00;4152722;28;20077;-75
2023/08/18 05:30:46;;;;;;;5.60;3.72;;;19.30;99.90;;;18.83;100.00;100658.31;4152946;28;20049;-75
2023/08/18 05:32:47;;;;;;;5.50;4.43;;;19.30;99.90;;;18.83;100.00;100665.50;4152987;28;20026;-75
2023/08/18 05:34:52;;;;;;;4.72;4.20;;;19.40;99.90;;;18.84;100.00;100667.16;4153025;28;20061;-74
2023/08/18 05:36:54;;;;;;;5.97;4.13;;;19.30;99.90;;;18.87;100.00;100680.09;4152544;28;20054;-74
2023/08/18 05:38:54;;;;;;;4.88;4.30;;;19.30;99.90;;;18.87;100.00;100694.28;4154047;28;20502;-74
2023/08/18 05:41:07;;;;;;;6.28;5.05;;;19.30;99.90;;;18.84;100.00;100693.88;4153876;28;20033;-74
2023/08/18 05:43:09;;;;;;;4.53;3.80;;;19.30;99.90;;;18.85;100.00;100701.69;4150070;28;20101;-75
2023/08/18 05:45:10;;;;;;;4.60;4.20;;;19.40;99.90;;;18.86;100.00;100698.00;4139307;28;20025;-75
2023/08/18 05:47:11;;;;;;;8.13;4.72;;;19.30;99.90;;;18.90;100.00;100698.38;4153746;28;20030;-75
2023/08/18 05:49:12;;;;;;;7.05;4.82;;;19.30;99.90;;;18.91;100.00;100683.97;4153455;28;20505;-74
2023/08/18 05:51:13;;;;;;;7.25;4.53;;;19.30;99.90;;;18.90;100.00;100677.00;4152357;28;20129;-75
2023/08/18 05:53:14;;;;;;;6.22;4.78;;;19.40;99.90;;;18.91;100.00;100682.13;4136597;28;20030;-74
2023/08/18 05:55:15;;;;;;;7.43;4.53;;;19.40;99.90;;;18.94;100.00;100667.50;4143290;28;20030;-74
2023/08/18 05:57:15;;;;;;;4.95;3.95;;;19.40;99.90;;;19.02;100.00;100675.31;4152511;28;20424;-75
2023/08/18 05:59:16;;;;;;;4.90;4.35;;;19.50;99.90;;;19.04;100.00;100671.38;4153663;28;20026;-74
2023/08/18 06:01:17;;;;;;;9.23;4.47;;;19.50;99.90;;;19.13;100.00;100683.47;4152265;28;20026;-75
2023/08/18 06:03:21;;;;;;;4.32;3.65;;;19.60;99.90;;;19.18;100.00;100680.16;4153249;28;20034;-75
2023/08/18 06:05:23;;;;;;;;;;;19.60;99.90;;;19.22;100.00;100670.69;4152586;28;20496;-74
2023/08/18 06:07:24;;;;;;;7.00;3.63;;;19.70;99.90;;;19.22;100.00;100671.50;4153584;28;19931;-75
2023/08/18 06:09:24;;;;;;;4.00;3.60;;;19.80;99.90;;;19.29;100.00;100669.59;4152068;28;20034;-75
2023/08/18 06:11:25;;;;;;;5.65;3.40;;;19.70;99.90;;;19.32;100.00;100671.84;4153392;28;20486;-75
2023/08/18 06:13:26;;;;;;;5.53;3.50;;;19.80;99.90;;;19.30;100.00;100667.75;4153302;28;20029;-74
2023/08/18 06:15:27;;;;;;;4.38;3.03;;;19.80;99.90;;;19.34;100.00;100674.31;4152142;28;20022;-74
2023/08/18 06:17:28;;;;;;;5.75;4.10;;;19.80;99.90;;;19.33;100.00;100678.84;4152395;28;20060;-74
2023/08/18 06:19:29;;;;;;;4.70;3.40;;;19.80;99.90;;;19.34;100.00;100680.50;4151914;28;20026;-74
2023/08/18 06:21:30;;;;;;;5.95;3.40;;;19.80;99.90;;;19.34;100.00;100675.16;4153224;28;20026;-74
2023/08/18 06:23:31;;;;;;;3.80;3.45;;;19.80;99.90;;;19.41;100.00;100680.50;4151922;28;20473;-74
2023/08/18 06:25:32;;;;;;;5.43;4.05;;;19.90;99.90;;;19.43;100.00;100675.75;4153060;28;20021;-74
2023/08/18 06:27:33;;;;;;;4.30;3.70;;;19.90;99.90;;;19.50;100.00;100687.22;4135671;28;20030;-75
2023/08/18 06:29:34;;;;;;;3.85;3.42;;;19.90;99.90;;;19.53;100.00;100683.31;4153102;28;20477;-74
2023/08/18 06:31:34;;;;;;;5.40;3.50;;;20.00;99.90;;;19.58;100.00;100675.44;4153060;28;20029;-75
2023/08/18 06:33:36;;;;;;;5.13;3.15;;;20.00;99.90;;;19.66;100.00;100686.69;4135235;28;20033;-75
2023/08/18 06:35:36;;;;;;;4.75;3.65;;;20.10;99.90;;;19.75;100.00;100693.44;4151122;28;20030;-75
2023/08/18 06:37:37;;;;;;;3.88;3.33;;;20.20;99.90;;;19.84;100.00;100691.31;4153020;28;20040;-75
2023/08/18 06:39:38;;;;;;;3.45;3.08;;;20.20;99.90;;;19.80;100.00;100669.50;4152981;28;20030;-75
2023/08/18 06:41:42;;;;;;;3.85;3.33;;;20.30;99.90;;;19.97;100.00;100685.03;4152782;28;20036;-75
2023/08/18 06:43:43;;;;;;;6.82;4.05;;;20.40;99.90;;;20.15;100.00;100698.47;4151571;28;20033;-75
2023/08/18 06:45:44;;;;;;;4.47;3.72;;;20.60;99.90;;;20.24;100.00;100689.13;4150842;28;20010;-75
2023/08/18 06:47:45;;;;;;;5.82;3.85;;;20.70;99.90;;;20.41;100.00;100695.56;4151528;28;20029;-75
2023/08/18 06:49:46;;;;;;;5.50;3.50;;;20.80;99.90;;;20.56;100.00;100684.50;4151137;28;20046;-75
2023/08/18 06:51:46;;;;;;;3.28;2.95;;;21.00;99.90;;;20.73;100.00;100690.91;4146926;28;20018;-74
2023/08/18 06:53:48;;;;;;;4.13;2.95;;;21.20;99.90;;;20.86;100.00;100680.84;4143518;28;20026;-75
2023/08/18 06:55:49;;;;;;;3.75;2.90;;;21.30;99.90;;;20.98;100.00;100684.44;4151627;28;20029;-75
2023/08/18 06:57:50;;;;;;;5.07;3.17;;;21.40;99.90;;;21.07;100.00;100679.56;4152689;28;20026;-74
2023/08/18 06:59:51;;;;;;;3.67;2.97;;;21.50;99.90;;;21.12;100.00;100677.03;4151552;28;20117;-75
2023/08/18 07:01:53;;;;;;;3.17;2.70;;;21.50;99.90;;;21.15;100.00;100687.31;4167842;28;20083;-75
2023/08/18 07:03:54;;;;;;;3.03;2.72;;;21.50;99.90;;;21.02;100.00;100682.13;4151191;28;20045;-75
2023/08/18 07:05:55;;;;;;;6.72;2.78;;;21.40;99.90;;;20.97;100.00;100690.81;4151334;28;20022;-75
2023/08/18 07:07:56;;;;;;;4.22;2.97;;;21.30;99.90;;;20.98;100.00;100689.78;4151648;28;20072;-75
2023/08/18 07:09:57;;;;;;;6.10;3.03;;;21.30;99.90;;;21.06;100.00;100679.78;4151577;28;20026;-75
2023/08/18 07:11:59;;;;;;;3.92;2.65;;;21.40;99.90;;;21.17;100.00;100687.13;4151145;28;20038;-75
2023/08/18 07:14:00;;;;;;;4.68;2.75;;;21.40;99.90;;;21.20;100.00;100674.06;4152435;28;20033;-75
2023/08/18 07:16:02;;;;;;;3.55;2.88;;;21.50;99.90;;;21.24;100.00;100675.25;4151526;28;20456;-75
2023/08/18 07:18:03;;;;;;;3.67;2.92;;;21.60;99.90;;;21.31;100.00;100680.53;4151117;28;20030;-75
2023/08/18 07:20:08;;;;;;;3.85;3.13;;;21.70;99.90;;;21.43;100.00;100684.06;4148817;28;20037;-74
2023/08/18 07:22:09;;;;;;;3.90;2.45;;;21.70;99.90;;;21.63;100.00;100675.72;4149669;28;20030;-74
2023/08/18 07:24:09;;;;;;;3.65;2.95;;;21.80;99.90;;;21.82;100.00;100675.41;4140677;28;20041;-74
2023/08/18 07:26:10;;;;;;;4.38;3.28;;;22.00;99.90;;;21.97;100.00;100678.50;4152596;28;20049;-74
2023/08/18 07:28:11;;;;;;;4.85;3.20;;;22.10;99.90;;;22.13;100.00;100681.56;4152357;28;20026;-74
2023/08/18 07:30:12;;;;;;;4.22;3.55;;;22.30;99.90;;;22.30;100.00;100683.31;4149378;28;20471;-74
2023/08/18 07:32:13;;;;;;;3.20;2.90;;;22.40;99.90;;;22.48;100.00;100685.88;4147609;28;20030;-74
2023/08/18 07:34:14;;;;;;;5.13;3.38;;;22.60;99.90;;;22.66;100.00;100676.88;4142944;28;20061;-74
2023/08/18 07:36:15;;;;;;;3.20;2.83;;;22.80;99.90;;;22.81;100.00;100673.69;4148971;28;20493;-75
2023/08/18 07:38:17;;;;;;;4.28;3.00;;;22.90;99.90;;;23.02;100.00;100679.25;4151173;28;20026;-74
2023/08/18 07:40:18;;;;;;;4.70;3.05;;;23.10;99.90;;;23.13;100.00;100678.38;4139556;28;20026;-74
2023/08/18 07:42:19;;;;;;;4.07;3.38;;;23.30;99.90;;;23.34;100.00;100681.47;4134782;28;20129;-74
2023/08/18 07:44:20;;;;;;;3.85;2.97;;;23.40;99.90;;;23.44;100.00;100673.63;4152309;28;20468;-74
2023/08/18 07:46:21;;;;;;;4.13;3.00;;;23.60;99.90;;;23.50;100.00;100683.41;4151021;28;20038;-74
2023/08/18 07:48:23;;;;;;;5.30;3.15;;;23.60;99.90;;;23.48;100.00;100680.94;4151838;28;20030;-74
2023/08/18 07:50:24;;;;;;;4.80;3.38;;;23.70;99.90;;;23.50;100.00;100680.72;4151193;28;20030;-74
2023/08/18 07:52:25;;;;;;;4.53;3.40;;;23.60;99.90;;;23.54;100.00;100689.94;4125148;28;20035;-74
2023/08/18 07:54:26;;;;;;;6.03;3.42;;;23.70;99.90;;;23.55;100.00;100695.09;4148661;28;20041;-74
2023/08/18 07:56:27;;;;;;;7.22;3.55;;;23.70;99.90;;;23.65;100.00;100694.47;4152029;28;20452;-74
2023/08/18 07:58:28;;;;;;;2.97;2.67;;;23.70;99.90;;;23.74;100.00;100695.69;4150292;28;20026;-74
2023/08/18 08:00:30;;;;;;;5.03;2.75;;;23.80;99.90;;;23.89;100.00;100695.97;4144154;28;20057;-74
2023/08/18 08:02:31;;;;;;;2.55;2.05;;;24.10;99.90;;;24.04;100.00;100696.19;4152033;28;20469;-74
2023/08/18 08:04:32;;;;;;;3.88;2.95;;;24.20;99.90;;;24.14;100.00;100692.88;4150562;28;20030;-74
2023/08/18 08:06:33;;;;;;;2.75;2.20;;;24.40;99.90;;;24.27;100.00;100691.72;4150949;28;20095;-74
2023/08/18 08:08:34;;;;;;;3.45;2.80;;;24.50;99.90;;;24.31;100.00;100691.00;4150717;28;20448;-74
2023/08/18 08:10:35;;;;;;;3.47;2.50;;;24.50;99.90;;;24.26;100.00;100690.91;4146693;28;20022;-74
2023/08/18 08:12:38;;;;;;;4.30;2.28;;;24.50;99.90;;;24.16;100.00;100683.47;4150449;28;20030;-75
2023/08/18 08:14:39;;;;;;;3.72;2.70;;;24.40;99.90;;;24.03;100.00;100686.47;4145395;28;20018;-74
2023/08/18 08:16:40;;;;;;;6.10;2.45;;;24.40;99.90;;;23.87;100.00;100683.75;4144452;28;20029;-74
2023/08/18 08:18:41;;;;;;;3.88;2.10;;;24.40;99.90;;;23.85;100.00;100691.28;4151980;28;20025;-74
2023/08/18 08:20:42;;;;;;;3.03;2.72;;;24.30;99.90;;;23.79;100.00;100693.09;4150624;28;20117;-74